createdAt,value
2019-04-22T00:00:37.260Z,80.50
2019-04-22T00:01:40.136Z,80.30
2019-04-22T00:02:50.314Z,80.50
2019-04-22T00:03:56.568Z,80.50
2019-04-22T00:05:07.308Z,80.40
2019-04-22T00:06:25.541Z,80.30
2019-04-22T00:07:37.247Z,80.80
2019-04-22T00:08:44.568Z,80.70
2019-04-22T00:09:58.499Z,80.50
2019-04-22T00:11:06.380Z,80.60
2019-04-22T00:12:13.817Z,80.70
2019-04-22T00:13:22.208Z,80.60
2019-04-22T00:14:17.865Z,80.60
2019-04-22T00:15:29.168Z,80.50
2019-04-22T00:16:47.495Z,80.40
2019-04-22T00:17:55.138Z,80.50
2019-04-22T00:19:11.479Z,80.60
2019-04-22T00:21:13.015Z,80.60
2019-04-22T00:22:22.229Z,80.50
2019-04-22T00:23:31.344Z,80.60
2019-04-22T00:25:10.451Z,81.50
2019-04-22T00:25:56.080Z,81.20
2019-04-22T00:28:12.765Z,80.90
2019-04-22T00:29:39.477Z,81.10
2019-04-22T00:31:34.723Z,81.20
2019-04-22T00:32:58.945Z,81.10
2019-04-22T00:34:06.207Z,81.00
2019-04-22T00:35:13.328Z,81.20
2019-04-22T00:36:23.283Z,81.30
2019-04-22T00:37:35.734Z,81.20
2019-04-22T00:38:41.699Z,81.60
2019-04-22T00:39:46.670Z,81.30
2019-04-22T00:40:53.887Z,81.30
2019-04-22T00:42:02.013Z,80.70
2019-04-22T00:43:07.003Z,81.30
2019-04-22T00:44:19.077Z,81.40
2019-04-22T00:45:23.615Z,80.90
2019-04-22T00:46:25.266Z,81.40
2019-04-22T00:47:36.451Z,82.30
2019-04-22T00:48:51.192Z,81.40
2019-04-22T00:51:10.840Z,81.50
2019-04-22T00:52:12.494Z,81.50
2019-04-22T00:53:19.685Z,81.50
2019-04-22T00:54:21.548Z,81.60
2019-04-22T00:55:28.862Z,81.80
2019-04-22T00:56:34.169Z,81.60
2019-04-22T00:57:42.120Z,81.70
2019-04-22T00:58:46.666Z,81.70
2019-04-22T01:00:00.336Z,81.70
2019-04-22T01:01:09.061Z,81.30
2019-04-22T01:02:13.125Z,81.60
2019-04-22T01:03:26.937Z,81.40
2019-04-22T01:04:35.106Z,81.40
2019-04-22T01:05:43.744Z,81.50
2019-04-22T01:06:38.641Z,81.60
2019-04-22T01:07:49.907Z,81.50
2019-04-22T01:09:02.604Z,81.60
2019-04-22T01:11:11.263Z,81.80
2019-04-22T01:12:15.595Z,81.60
2019-04-22T01:13:24.924Z,81.50
2019-04-22T01:14:28.076Z,81.50
2019-04-22T01:15:40.441Z,81.40
2019-04-22T01:16:48.487Z,81.50
2019-04-22T01:18:03.615Z,81.40
2019-04-22T01:19:00.556Z,81.40
2019-04-22T01:20:24.506Z,81.50
2019-04-22T01:22:20.611Z,81.60
2019-04-22T01:23:29.633Z,81.80
2019-04-22T01:24:32.358Z,82.00
2019-04-22T01:25:42.126Z,81.80
2019-04-22T01:26:43.589Z,81.80
2019-04-22T01:27:53.070Z,81.90
2019-04-22T01:29:02.500Z,82.10
2019-04-22T01:30:07.253Z,82.00
2019-04-22T01:31:04.796Z,81.90
2019-04-22T01:32:15.453Z,82.70
2019-04-22T01:33:21.553Z,82.00
2019-04-22T01:34:36.381Z,81.90
2019-04-22T01:35:38.636Z,82.00
2019-04-22T01:36:57.787Z,82.20
2019-04-22T01:37:59.781Z,82.30
2019-04-22T01:39:16.347Z,82.10
2019-04-22T01:40:25.382Z,82.00
2019-04-22T01:41:42.449Z,82.00
2019-04-22T01:42:57.583Z,82.20
2019-04-22T01:44:07.141Z,82.20
2019-04-22T01:45:10.654Z,82.30
2019-04-22T01:46:16.893Z,82.40
2019-04-22T01:47:29.972Z,82.40
2019-04-22T01:48:26.893Z,82.50
2019-04-22T01:49:34.432Z,82.70
2019-04-22T01:50:39.475Z,82.60
2019-04-22T01:52:59.016Z,82.70
2019-04-22T01:54:05.222Z,82.90
2019-04-22T01:55:22.294Z,82.90
2019-04-22T01:56:20.082Z,83.00
2019-04-22T01:57:22.878Z,82.70
2019-04-22T01:58:28.874Z,82.90
2019-04-22T01:59:31.312Z,83.00
2019-04-22T02:00:58.258Z,82.80
2019-04-22T02:02:07.896Z,82.60
2019-04-22T02:03:10.542Z,82.60
2019-04-22T02:04:30.229Z,82.50
2019-04-22T02:05:24.417Z,82.50
2019-04-22T02:06:39.157Z,82.60
2019-04-22T02:07:42.118Z,82.50
2019-04-22T02:08:53.320Z,82.70
2019-04-22T02:10:00.417Z,82.50
2019-04-22T02:11:03.982Z,82.60
2019-04-22T02:12:14.661Z,82.40
2019-04-22T02:13:15.667Z,82.50
2019-04-22T02:14:28.796Z,82.80
2019-04-22T02:15:23.376Z,82.80
2019-04-22T02:16:36.169Z,83.00
2019-04-22T02:18:58.020Z,83.00
2019-04-22T02:19:57.560Z,82.90
2019-04-22T02:21:05.456Z,83.20
2019-04-22T02:22:11.521Z,83.20
2019-04-22T02:24:35.274Z,83.30
2019-04-22T02:25:43.647Z,83.40
2019-04-22T02:26:40.659Z,83.70
2019-04-22T02:27:55.505Z,83.60
2019-04-22T02:28:58.103Z,83.40
2019-04-22T02:29:57.860Z,83.30
2019-04-22T02:31:25.871Z,83.40
2019-04-22T02:32:27.781Z,83.70
2019-04-22T02:35:58.223Z,83.70
2019-04-22T02:36:43.091Z,83.60
2019-04-22T02:37:54.481Z,83.60
2019-04-22T02:39:05.617Z,83.60
2019-04-22T02:40:13.997Z,83.50
2019-04-22T02:42:45.631Z,83.70
2019-04-22T02:44:42.105Z,83.90
2019-04-22T02:46:23.256Z,84.00
2019-04-22T02:47:38.863Z,83.80
2019-04-22T02:48:18.874Z,83.80
2019-04-22T02:49:18.872Z,83.90
2019-04-22T02:54:56.131Z,84.10
2019-04-22T02:56:13.368Z,84.00
2019-04-22T02:57:19.408Z,84.10
2019-04-22T02:58:27.635Z,84.00
2019-04-22T02:59:27.943Z,84.50
2019-04-22T03:00:38.958Z,83.90
2019-04-22T03:01:36.160Z,84.10
2019-04-22T03:02:50.718Z,84.10
2019-04-22T03:04:03.381Z,84.00
2019-04-22T03:06:15.421Z,84.00
2019-04-22T03:07:09.054Z,84.00
2019-04-22T03:08:23.977Z,84.10
2019-04-22T03:10:47.372Z,84.10
2019-04-22T03:11:50.434Z,84.10
2019-04-22T03:12:41.216Z,84.40
2019-04-22T03:13:55.712Z,84.50
2019-04-22T03:14:56.315Z,84.60
2019-04-22T03:17:15.953Z,84.70
2019-04-22T03:18:29.074Z,84.50
2019-04-22T03:20:39.476Z,85.40
2019-04-22T03:21:40.563Z,84.70
2019-04-22T03:22:49.297Z,84.80
2019-04-22T03:25:39.861Z,84.80
2019-04-22T03:27:07.817Z,84.80
2019-04-22T03:28:18.870Z,85.00
2019-04-22T03:29:30.666Z,85.80
2019-04-22T03:30:59.299Z,84.80
2019-04-22T03:32:18.063Z,84.70
2019-04-22T03:33:19.382Z,84.80
2019-04-22T03:35:31.605Z,85.20
2019-04-22T03:36:42.186Z,84.80
2019-04-22T03:38:43.894Z,85.00
2019-04-22T03:39:45.488Z,85.00
2019-04-22T03:43:09.179Z,85.20
2019-04-22T03:45:20.266Z,85.40
2019-04-22T03:46:14.799Z,85.60
2019-04-22T03:47:29.974Z,85.50
2019-04-22T03:48:38.185Z,85.70
2019-04-22T03:51:12.076Z,85.70
2019-04-22T03:52:07.382Z,85.90
2019-04-22T03:53:09.806Z,85.80
2019-04-22T03:54:29.798Z,85.80
2019-04-22T03:56:36.557Z,85.90
2019-04-22T03:58:32.397Z,85.90
2019-04-22T03:59:45.967Z,86.00
2019-04-22T04:02:13.687Z,86.10
2019-04-22T04:03:04.975Z,86.20
2019-04-22T04:04:19.213Z,86.20
2019-04-22T04:05:22.184Z,86.30
2019-04-22T04:06:36.633Z,86.30
2019-04-22T04:07:40.662Z,86.40
2019-04-22T04:09:49.994Z,86.50
2019-04-22T04:10:53.228Z,86.30
2019-04-22T04:12:12.286Z,86.10
2019-04-22T04:13:12.203Z,86.10
2019-04-22T04:15:30.097Z,86.10
2019-04-22T04:17:48.942Z,85.80
2019-04-22T04:18:56.149Z,85.70
2019-04-22T04:20:05.872Z,85.70
2019-04-22T04:21:12.513Z,85.80
2019-04-22T04:22:19.573Z,86.10
2019-04-22T04:23:16.774Z,85.80
2019-04-22T04:24:42.283Z,85.70
2019-04-22T04:26:45.771Z,85.60
2019-04-22T04:27:54.114Z,85.60
2019-04-22T04:30:12.817Z,85.50
2019-04-22T04:31:00.604Z,85.20
2019-04-22T04:32:24.268Z,85.10
2019-04-22T04:33:18.452Z,85.10
2019-04-22T04:34:30.839Z,85.00
2019-04-22T04:35:50.586Z,84.90
2019-04-22T04:36:34.728Z,85.00
2019-04-22T04:37:52.442Z,85.00
2019-04-22T04:38:51.807Z,84.80
2019-04-22T04:40:05.721Z,85.00
2019-04-22T04:41:06.367Z,84.70
2019-04-22T04:42:23.084Z,85.00
2019-04-22T04:43:35.591Z,85.10
2019-04-22T04:46:58.471Z,84.80
2019-04-22T04:48:03.874Z,84.70
2019-04-22T04:49:19.411Z,84.80
2019-04-22T04:50:18.491Z,84.90
2019-04-22T04:54:05.836Z,85.00
2019-04-22T04:55:03.998Z,85.10
2019-04-22T04:55:53.282Z,85.10
2019-04-22T04:59:33.242Z,85.10
2019-04-22T05:01:44.957Z,85.20
2019-04-22T05:03:04.874Z,85.10
2019-04-22T05:03:57.808Z,85.00
2019-04-22T05:05:08.270Z,84.90
2019-04-22T05:06:07.479Z,84.90
2019-04-22T05:07:19.808Z,85.20
2019-04-22T05:08:32.989Z,85.00
2019-04-22T05:09:26.226Z,85.00
2019-04-22T05:10:44.798Z,85.20
2019-04-22T05:12:01.910Z,85.00
2019-04-22T05:15:03.978Z,85.20
2019-04-22T05:16:25.466Z,85.10
2019-04-22T05:17:18.251Z,85.20
2019-04-22T05:18:20.801Z,85.20
2019-04-22T05:19:25.636Z,85.10
2019-04-22T05:22:07.628Z,85.00
2019-04-22T05:23:30.009Z,84.90
2019-04-22T05:25:48.636Z,85.00
2019-04-22T05:26:27.726Z,85.00
2019-04-22T05:27:05.588Z,85.20
2019-04-22T05:28:11.713Z,85.20
2019-04-22T05:29:41.941Z,85.00
2019-04-22T05:31:43.573Z,85.00
2019-04-22T05:32:47.359Z,84.90
2019-04-22T05:34:05.497Z,84.90
2019-04-22T05:35:09.916Z,84.80
2019-04-22T05:37:29.994Z,84.60
2019-04-22T05:38:40.883Z,84.40
2019-04-22T05:39:44.666Z,84.20
2019-04-22T05:40:49.877Z,84.30
2019-04-22T05:43:07.986Z,84.20
2019-04-22T05:44:14.464Z,84.20
2019-04-22T05:45:25.202Z,84.30
2019-04-22T05:46:34.585Z,84.20
2019-04-22T05:47:46.280Z,84.20
2019-04-22T05:48:55.401Z,84.30
2019-04-22T05:49:54.664Z,84.30
2019-04-22T05:51:10.268Z,84.40
2019-04-22T05:52:21.222Z,84.30
2019-04-22T05:53:34.202Z,84.40
2019-04-22T05:56:16.313Z,84.50
2019-04-22T05:57:18.071Z,84.60
2019-04-22T05:58:25.843Z,84.40
2019-04-22T06:01:11.811Z,84.10
2019-04-22T06:03:07.218Z,83.90
2019-04-22T06:04:11.491Z,83.80
2019-04-22T06:05:19.646Z,83.70
2019-04-22T06:06:33.388Z,83.60
2019-04-22T06:07:37.370Z,83.60
2019-04-22T06:08:45.605Z,84.00
2019-04-22T06:10:02.348Z,83.60
2019-04-22T06:11:09.899Z,83.30
2019-04-22T06:12:17.097Z,83.10
2019-04-22T06:13:27.662Z,83.00
2019-04-22T06:14:37.060Z,82.70
2019-04-22T06:15:44.165Z,82.60
2019-04-22T06:17:08.198Z,82.50
2019-04-22T06:19:31.342Z,82.30
2019-04-22T06:22:25.290Z,82.00
2019-04-22T06:22:46.300Z,81.60
2019-04-22T06:23:18.660Z,81.50
2019-04-22T06:24:42.372Z,81.30
2019-04-22T06:25:59.070Z,81.10
2019-04-22T06:28:18.082Z,80.90
2019-04-22T06:29:19.629Z,81.60
2019-04-22T06:30:43.096Z,80.60
2019-04-22T06:32:51.861Z,80.40
2019-04-22T06:34:02.293Z,80.20
2019-04-22T06:35:19.836Z,80.30
2019-04-22T06:36:15.594Z,80.30
2019-04-22T06:37:43.433Z,80.20
2019-04-22T06:38:59.144Z,80.30
2019-04-22T06:42:42.992Z,79.30
2019-04-22T06:43:56.331Z,79.30
2019-04-22T06:45:02.784Z,79.20
2019-04-22T06:46:06.810Z,78.40
2019-04-22T06:47:25.237Z,78.90
2019-04-22T06:48:26.472Z,78.80
2019-04-22T06:49:35.393Z,78.60
2019-04-22T06:50:41.758Z,78.60
2019-04-22T06:53:23.897Z,77.70
2019-04-22T06:54:32.660Z,77.20
2019-04-22T06:55:45.578Z,77.30
2019-04-22T06:56:54.714Z,76.70
2019-04-22T06:58:10.357Z,76.60
2019-04-22T07:00:53.132Z,76.60
2019-04-22T07:02:11.625Z,76.60
2019-04-22T07:04:19.715Z,76.20
2019-04-22T07:05:37.676Z,76.10
2019-04-22T07:06:52.777Z,75.90
2019-04-22T07:07:53.476Z,75.80
2019-04-22T07:09:20.968Z,75.60
2019-04-22T07:10:18.275Z,75.30
2019-04-22T07:11:06.265Z,75.00
2019-04-22T07:12:24.805Z,74.70
2019-04-22T07:14:18.090Z,74.30
2019-04-22T07:15:42.382Z,73.90
2019-04-22T07:16:39.449Z,73.70
2019-04-22T07:17:49.198Z,73.70
2019-04-22T07:18:49.806Z,73.70
2019-04-22T07:19:57.850Z,73.60
2019-04-22T07:21:00.999Z,73.60
2019-04-22T07:24:59.254Z,73.60
2019-04-22T07:26:06.038Z,73.20
2019-04-22T07:29:25.291Z,72.90
2019-04-22T07:30:35.008Z,72.90
2019-04-22T07:31:44.427Z,72.70
2019-04-22T07:33:58.029Z,72.90
2019-04-22T07:35:08.570Z,73.00
2019-04-22T07:36:30.732Z,72.90
2019-04-22T07:37:29.694Z,72.60
2019-04-22T07:38:26.403Z,72.50
2019-04-22T07:39:30.868Z,72.50
2019-04-22T07:40:38.988Z,72.30
2019-04-22T07:41:45.992Z,72.40
2019-04-22T07:42:48.165Z,72.10
2019-04-22T07:44:13.386Z,71.70
2019-04-22T07:45:04.962Z,71.10
2019-04-22T07:46:13.703Z,70.90
2019-04-22T07:48:35.745Z,70.50
2019-04-22T07:50:54.496Z,70.00
2019-04-22T07:52:03.675Z,69.80
2019-04-22T07:53:21.853Z,69.70
2019-04-22T07:54:42.819Z,69.60
2019-04-22T07:55:48.984Z,69.50
2019-04-22T07:57:07.202Z,69.40
2019-04-22T07:58:02.053Z,69.30
2019-04-22T07:59:09.518Z,69.10
2019-04-22T08:02:32.049Z,69.00
2019-04-22T08:03:47.714Z,68.80
2019-04-22T08:04:54.212Z,68.70
2019-04-22T08:05:58.732Z,68.60
2019-04-22T08:08:13.190Z,68.20
2019-04-22T08:09:20.292Z,68.10
2019-04-22T08:10:39.069Z,68.10
2019-04-22T08:12:45.672Z,68.10
2019-04-22T08:14:29.755Z,68.10
2019-04-22T08:15:01.934Z,67.90
2019-04-22T08:16:10.364Z,66.80
2019-04-22T08:17:43.085Z,66.50
2019-04-22T08:18:28.948Z,66.40
2019-04-22T08:20:50.384Z,66.10
2019-04-22T08:21:59.965Z,65.80
2019-04-22T08:23:04.881Z,65.60
2019-04-22T08:24:06.308Z,65.40
2019-04-22T08:25:10.060Z,65.10
2019-04-22T08:26:19.322Z,65.00
2019-04-22T08:27:30.411Z,65.10
2019-04-22T08:29:58.690Z,65.30
2019-04-22T08:31:10.564Z,65.10
2019-04-22T08:32:05.044Z,65.50
2019-04-22T08:33:22.152Z,65.50
2019-04-22T08:37:22.756Z,65.50
2019-04-22T08:38:10.399Z,65.20
2019-04-22T08:39:16.784Z,65.10
2019-04-22T08:40:10.266Z,65.00
2019-04-22T08:43:36.427Z,64.50
2019-04-22T08:43:51.433Z,65.10
2019-04-22T08:45:50.029Z,64.10
2019-04-22T08:47:04.756Z,64.10
2019-04-22T08:48:12.973Z,64.00
2019-04-22T08:49:10.138Z,64.10
2019-04-22T08:50:39.427Z,64.00
2019-04-22T08:51:40.361Z,64.00
2019-04-22T08:52:41.806Z,64.00
2019-04-22T08:55:08.131Z,64.00
2019-04-22T08:56:23.451Z,64.00
2019-04-22T08:57:23.780Z,64.10
2019-04-22T08:58:29.353Z,63.90
2019-04-22T08:59:38.105Z,63.70
2019-04-22T09:01:05.087Z,63.50
2019-04-22T09:01:57.430Z,63.50
2019-04-22T09:03:04.647Z,63.00
2019-04-22T09:04:10.098Z,62.70
2019-04-22T09:05:39.177Z,62.20
2019-04-22T09:06:39.974Z,62.10
2019-04-22T09:07:36.845Z,61.80
2019-04-22T09:08:55.220Z,61.60
2019-04-22T09:10:05.235Z,61.30
2019-04-22T09:11:16.455Z,60.50
2019-04-22T09:12:24.631Z,60.00
2019-04-22T09:13:30.032Z,59.90
2019-04-22T09:15:48.773Z,59.40
2019-04-22T09:17:08.406Z,59.40
2019-04-22T09:18:06.776Z,59.40
2019-04-22T09:19:06.583Z,59.30
2019-04-22T09:20:26.564Z,59.30
2019-04-22T09:21:35.633Z,59.20
2019-04-22T09:22:33.543Z,58.90
2019-04-22T09:23:58.314Z,58.80
2019-04-22T09:25:03.882Z,58.80
2019-04-22T09:25:53.319Z,58.50
2019-04-22T09:27:23.349Z,58.50
2019-04-22T09:28:24.392Z,58.40
2019-04-22T09:30:46.764Z,58.70
2019-04-22T09:32:01.680Z,58.70
2019-04-22T09:34:15.749Z,58.50
2019-04-22T09:34:33.840Z,58.70
2019-04-22T09:35:48.277Z,58.40
2019-04-22T09:36:58.924Z,58.20
2019-04-22T09:38:18.948Z,58.00
2019-04-22T09:39:19.375Z,57.80
2019-04-22T09:40:41.872Z,57.60
2019-04-22T09:41:28.452Z,57.30
2019-04-22T09:42:39.565Z,57.00
2019-04-22T09:43:47.153Z,56.80
2019-04-22T09:44:47.513Z,56.80
2019-04-22T09:45:58.131Z,56.90
2019-04-22T09:47:06.223Z,56.80
2019-04-22T09:48:33.565Z,56.70
2019-04-22T09:50:43.289Z,56.50
2019-04-22T09:51:54.139Z,56.50
2019-04-22T09:53:02.399Z,56.50
2019-04-22T09:54:08.990Z,56.70
2019-04-22T09:55:12.460Z,56.80
2019-04-22T09:56:24.089Z,56.80
2019-04-22T09:57:27.520Z,56.70
2019-04-22T09:58:33.579Z,56.10
2019-04-22T09:59:48.461Z,55.90
2019-04-22T10:01:03.033Z,56.10
2019-04-22T10:03:00.795Z,56.30
2019-04-22T10:04:09.994Z,56.40
2019-04-22T10:05:29.389Z,56.00
2019-04-22T10:07:01.278Z,55.30
2019-04-22T10:07:39.526Z,55.20
2019-04-22T10:11:04.939Z,54.80
2019-04-22T10:12:09.896Z,54.60
2019-04-22T10:14:28.030Z,54.30
2019-04-22T10:15:36.252Z,54.30
2019-04-22T10:16:43.773Z,54.50
2019-04-22T10:17:54.540Z,54.50
2019-04-22T10:19:04.708Z,54.50
2019-04-22T10:20:20.297Z,54.50
2019-04-22T10:21:40.570Z,54.40
2019-04-22T10:22:39.378Z,54.00
2019-04-22T10:23:44.300Z,54.00
2019-04-22T10:24:54.976Z,53.90
2019-04-22T10:25:57.314Z,53.80
2019-04-22T10:27:10.106Z,53.60
2019-04-22T10:28:24.829Z,53.60
2019-04-22T10:29:41.601Z,53.60
2019-04-22T10:30:39.077Z,53.60
2019-04-22T10:31:57.539Z,53.20
2019-04-22T10:33:00.799Z,53.20
2019-04-22T10:34:02.652Z,52.60
2019-04-22T10:35:12.194Z,52.70
2019-04-22T10:36:13.125Z,52.30
2019-04-22T10:37:23.423Z,51.90
2019-04-22T10:38:37.868Z,52.00
2019-04-22T10:39:53.329Z,52.00
2019-04-22T10:40:52.556Z,52.00
2019-04-22T10:41:58.839Z,51.90
2019-04-22T10:43:05.249Z,51.80
2019-04-22T10:44:11.291Z,51.80
2019-04-22T10:45:18.683Z,51.70
2019-04-22T10:46:24.460Z,51.70
2019-04-22T10:47:29.798Z,51.90
2019-04-22T10:48:36.600Z,51.50
2019-04-22T10:49:42.444Z,51.90
2019-04-22T10:50:52.624Z,51.20
2019-04-22T10:51:58.436Z,50.90
2019-04-22T10:53:13.221Z,50.80
2019-04-22T10:54:29.318Z,50.80
2019-04-22T10:55:25.815Z,50.80
2019-04-22T10:56:32.758Z,50.80
2019-04-22T10:57:38.980Z,50.60
2019-04-22T10:58:46.552Z,50.40
2019-04-22T10:59:52.277Z,50.10
2019-04-22T11:01:05.216Z,49.70
2019-04-22T11:02:07.435Z,49.40
2019-04-22T11:03:26.518Z,48.80
2019-04-22T11:04:34.460Z,48.40
2019-04-22T11:05:41.959Z,49.20
2019-04-22T11:07:03.831Z,48.60
2019-04-22T11:08:08.158Z,48.80
2019-04-22T11:09:14.235Z,48.50
2019-04-22T11:10:35.291Z,48.30
2019-04-22T11:11:38.452Z,48.20
2019-04-22T11:12:38.005Z,48.10
2019-04-22T11:13:42.134Z,48.10
2019-04-22T11:14:47.562Z,47.70
2019-04-22T11:15:55.605Z,47.60
2019-04-22T11:17:05.253Z,47.80
2019-04-22T11:18:19.741Z,47.70
2019-04-22T11:19:19.477Z,48.20
2019-04-22T11:20:26.055Z,47.30
2019-04-22T11:21:38.284Z,46.90
2019-04-22T11:22:48.903Z,46.80
2019-04-22T11:23:50.509Z,46.90
2019-04-22T11:24:58.986Z,46.90
2019-04-22T11:26:10.065Z,47.10
2019-04-22T11:27:10.941Z,47.30
2019-04-22T11:28:17.956Z,47.30
2019-04-22T11:29:25.463Z,47.40
2019-04-22T11:30:40.710Z,47.40
2019-04-22T11:31:42.312Z,47.20
2019-04-22T11:32:50.751Z,46.70
2019-04-22T11:33:58.520Z,46.60
2019-04-22T11:35:03.728Z,46.40
2019-04-22T11:36:13.542Z,46.10
2019-04-22T11:37:38.631Z,45.80
2019-04-22T11:38:51.154Z,45.60
2019-04-22T11:40:06.880Z,45.10
2019-04-22T11:41:09.155Z,45.60
2019-04-22T11:42:18.245Z,45.80
2019-04-22T11:43:24.001Z,45.90
2019-04-22T11:44:35.302Z,46.10
2019-04-22T11:45:45.414Z,46.30
2019-04-22T11:46:59.132Z,46.40
2019-04-22T11:48:01.401Z,46.20
2019-04-22T11:49:05.976Z,46.20
2019-04-22T11:50:13.497Z,46.30
2019-04-22T11:51:25.495Z,46.40
2019-04-22T11:52:26.985Z,46.20
2019-04-22T11:53:38.657Z,46.60
2019-04-22T11:57:17.018Z,46.40
2019-04-22T11:58:37.236Z,46.80
2019-04-22T12:00:20.966Z,47.00
2019-04-22T12:01:26.677Z,46.70
2019-04-22T12:02:33.144Z,46.60
2019-04-22T12:03:39.902Z,46.10
2019-04-22T12:05:03.689Z,45.80
2019-04-22T12:06:17.967Z,45.90
2019-04-22T12:07:34.801Z,45.80
2019-04-22T12:08:41.549Z,46.00
2019-04-22T12:09:53.419Z,45.50
2019-04-22T12:11:00.317Z,45.60
2019-04-22T12:12:05.696Z,45.40
2019-04-22T12:13:12.383Z,45.20
2019-04-22T12:14:18.269Z,45.30
2019-04-22T12:15:22.784Z,45.40
2019-04-22T12:16:31.601Z,45.40
2019-04-22T12:17:36.297Z,45.60
2019-04-22T12:18:41.098Z,45.60
2019-04-22T12:19:46.390Z,45.70
2019-04-22T12:20:50.949Z,45.90
2019-04-22T12:21:55.244Z,46.00
2019-04-22T12:23:09.441Z,46.00
2019-04-22T12:24:09.115Z,45.80
2019-04-22T12:25:31.986Z,45.90
2019-04-22T12:26:24.978Z,45.70
2019-04-22T12:27:30.006Z,45.70
2019-04-22T12:28:37.143Z,45.70
2019-04-22T12:29:44.856Z,45.70
2019-04-22T12:30:51.150Z,45.40
2019-04-22T12:31:55.650Z,45.40
2019-04-22T12:33:02.308Z,45.00
2019-04-22T12:34:07.894Z,44.90
2019-04-22T12:35:13.531Z,45.00
2019-04-22T12:36:18.340Z,45.00
2019-04-22T12:37:31.940Z,45.10
2019-04-22T12:38:33.447Z,45.20
2019-04-22T12:39:39.146Z,45.00
2019-04-22T12:40:51.296Z,45.00
2019-04-22T12:41:50.779Z,44.90
2019-04-22T12:42:59.784Z,45.00
2019-04-22T12:44:03.314Z,44.80
2019-04-22T12:45:09.958Z,44.80
2019-04-22T12:46:14.531Z,44.60
2019-04-22T12:47:20.150Z,44.50
2019-04-22T12:48:25.455Z,44.10
2019-04-22T12:49:32.221Z,43.90
2019-04-22T12:50:41.805Z,43.60
2019-04-22T12:51:45.391Z,43.70
2019-04-22T12:52:57.693Z,43.80
2019-04-22T12:53:59.387Z,43.80
2019-04-22T12:55:06.064Z,43.80
2019-04-22T12:56:12.699Z,44.00
2019-04-22T12:57:20.689Z,44.20
2019-04-22T12:58:25.471Z,44.30
2019-04-22T12:59:29.977Z,44.20
2019-04-22T13:00:38.423Z,44.10
2019-04-22T13:01:42.828Z,44.30
2019-04-22T13:02:47.323Z,44.50
2019-04-22T13:04:00.248Z,44.50
2019-04-22T13:05:03.979Z,44.70
2019-04-22T13:06:09.788Z,44.60
2019-04-22T13:07:15.659Z,44.20
2019-04-22T13:08:20.103Z,44.10
2019-04-22T13:09:25.228Z,44.30
2019-04-22T13:10:40.618Z,44.10
2019-04-22T13:11:40.377Z,44.00
2019-04-22T13:12:48.949Z,43.90
2019-04-22T13:13:54.663Z,43.80
2019-04-22T13:15:01.090Z,43.60
2019-04-22T13:16:08.886Z,43.40
2019-04-22T13:17:15.371Z,43.40
2019-04-22T13:18:31.058Z,43.30
2019-04-22T13:19:30.250Z,43.00
2019-04-22T13:20:36.954Z,42.70
2019-04-22T13:21:42.624Z,42.70
2019-04-22T13:22:48.903Z,42.80
2019-04-22T13:23:53.342Z,43.00
2019-04-22T13:24:57.933Z,43.10
2019-04-22T13:26:05.148Z,43.20
2019-04-22T13:27:11.224Z,43.30
2019-04-22T13:28:15.503Z,43.80
2019-04-22T13:29:21.203Z,43.20
2019-04-22T13:30:26.613Z,43.20
2019-04-22T13:31:31.238Z,43.30
2019-04-22T13:32:42.819Z,43.30
2019-04-22T13:33:46.513Z,43.10
2019-04-22T13:34:55.425Z,42.90
2019-04-22T13:36:03.731Z,42.80
2019-04-22T13:37:23.251Z,42.70
2019-04-22T13:38:29.036Z,42.60
2019-04-22T13:39:34.824Z,42.30
2019-04-22T13:40:55.860Z,42.40
2019-04-22T13:41:50.270Z,42.50
2019-04-22T13:42:53.419Z,42.50
2019-04-22T13:43:58.063Z,42.60
2019-04-22T13:45:04.043Z,42.50
2019-04-22T13:46:12.337Z,42.70
2019-04-22T13:47:32.287Z,42.70
2019-04-22T13:48:38.830Z,42.90
2019-04-22T13:50:01.130Z,42.60
2019-04-22T13:52:15.395Z,42.40
2019-04-22T13:53:30.413Z,42.20
2019-04-22T13:55:27.276Z,41.60
2019-04-22T13:56:24.867Z,41.50
2019-04-22T13:57:25.174Z,41.50
2019-04-22T13:58:31.547Z,41.60
2019-04-22T13:59:33.475Z,41.70
2019-04-22T14:00:40.560Z,41.80
2019-04-22T14:02:02.357Z,41.70
2019-04-22T14:03:24.647Z,41.80
2019-04-22T14:04:30.638Z,41.60
2019-04-22T14:05:38.053Z,41.50
2019-04-22T14:06:54.510Z,41.50
2019-04-22T14:07:53.151Z,41.70
2019-04-22T14:09:01.140Z,42.00
2019-04-22T14:10:09.125Z,42.30
2019-04-22T14:11:26.148Z,42.50
2019-04-22T14:12:21.760Z,42.90
2019-04-22T14:13:27.925Z,43.00
2019-04-22T14:14:35.401Z,43.30
2019-04-22T14:15:50.871Z,43.50
2019-04-22T14:16:51.029Z,43.80
2019-04-22T14:17:58.766Z,44.20
2019-04-22T14:19:03.331Z,44.20
2019-04-22T14:20:09.014Z,44.40
2019-04-22T14:21:18.808Z,44.60
2019-04-22T14:22:23.186Z,44.60
2019-04-22T14:23:29.007Z,44.80
2019-04-22T14:24:34.320Z,44.90
2019-04-22T14:25:42.992Z,45.00
2019-04-22T14:27:01.657Z,44.80
2019-04-22T14:28:32.815Z,44.60
2019-04-22T14:29:08.025Z,44.50
2019-04-22T14:30:22.195Z,44.20
2019-04-22T14:31:32.884Z,43.80
2019-04-22T14:32:39.604Z,43.30
2019-04-22T14:33:53.598Z,43.10
2019-04-22T14:34:55.301Z,43.10
2019-04-22T14:36:09.751Z,43.60
2019-04-22T14:37:14.346Z,42.90
2019-04-22T14:38:23.888Z,43.10
2019-04-22T14:39:31.088Z,42.50
2019-04-22T14:40:38.569Z,42.60
2019-04-22T14:41:59.265Z,42.50
2019-04-22T14:43:09.910Z,41.90
2019-04-22T14:45:06.878Z,41.60
2019-04-22T14:46:01.633Z,41.50
2019-04-22T14:46:47.534Z,41.00
2019-04-22T14:47:49.522Z,40.90
2019-04-22T14:48:49.789Z,40.70
2019-04-22T14:50:02.791Z,40.40
2019-04-22T14:51:07.632Z,39.60
2019-04-22T14:52:21.590Z,39.10
2019-04-22T14:53:32.330Z,38.40
2019-04-22T14:54:34.593Z,37.70
2019-04-22T14:55:37.831Z,37.00
2019-04-22T14:56:38.285Z,36.40
2019-04-22T14:57:44.263Z,35.40
2019-04-22T14:58:54.960Z,34.90
2019-04-22T14:59:59.796Z,34.00
2019-04-22T15:01:08.591Z,33.40
2019-04-22T15:02:21.479Z,32.60
2019-04-22T15:03:26.104Z,32.00
2019-04-22T15:04:35.097Z,31.40
2019-04-22T15:06:06.316Z,30.80
2019-04-22T15:06:52.834Z,30.30
2019-04-22T15:08:01.287Z,29.90
2019-04-22T15:09:05.899Z,29.60
2019-04-22T15:10:18.277Z,29.50
2019-04-22T15:11:26.810Z,29.20
2019-04-22T15:12:43.705Z,28.80
2019-04-22T15:14:27.658Z,28.40
2019-04-22T15:14:59.823Z,27.80
2019-04-22T15:16:15.884Z,27.60
2019-04-22T15:17:29.132Z,27.30
2019-04-22T15:18:41.916Z,27.10
2019-04-22T15:22:28.171Z,26.60
2019-04-22T15:22:50.576Z,26.30
2019-04-22T15:24:00.663Z,26.10
2019-04-22T15:25:22.826Z,26.00
2019-04-22T15:26:24.442Z,25.70
2019-04-22T15:27:30.927Z,25.50
2019-04-22T15:28:42.418Z,25.20
2019-04-22T15:29:49.387Z,25.00
2019-04-22T15:30:55.579Z,25.00
2019-04-22T15:32:03.022Z,24.90
2019-04-22T15:33:09.717Z,24.80
2019-04-22T15:34:14.363Z,24.90
2019-04-22T15:35:19.492Z,24.90
2019-04-22T15:36:32.399Z,24.90
2019-04-22T15:37:41.425Z,25.10
2019-04-22T15:38:49.149Z,25.10
2019-04-22T15:40:02.883Z,25.90
2019-04-22T15:41:28.568Z,25.70
2019-04-22T15:42:28.756Z,26.10
2019-04-22T15:43:36.950Z,26.20
2019-04-22T15:44:31.878Z,26.40
2019-04-22T15:45:50.888Z,26.70
2019-04-22T15:47:07.073Z,27.00
2019-04-22T15:48:14.650Z,27.40
2019-04-22T15:49:34.112Z,27.70
2019-04-22T15:50:36.859Z,28.00
2019-04-22T15:51:40.881Z,28.30
2019-04-22T15:52:53.786Z,28.50
2019-04-22T15:54:03.461Z,28.70
2019-04-22T15:55:44.993Z,29.00
2019-04-22T15:56:28.464Z,29.30
2019-04-22T15:57:28.971Z,29.70
2019-04-22T15:58:35.583Z,30.20
2019-04-22T16:00:05.416Z,30.70
2019-04-22T16:01:10.323Z,31.20
2019-04-22T16:02:10.031Z,31.70
2019-04-22T16:03:16.397Z,32.00
2019-04-22T16:04:26.437Z,32.40
2019-04-22T16:05:34.162Z,32.40
2019-04-22T16:06:38.990Z,33.10
2019-04-22T16:07:45.835Z,32.30
2019-04-22T16:09:03.061Z,32.30
2019-04-22T16:09:57.437Z,31.90
2019-04-22T16:11:12.106Z,31.70
2019-04-22T16:12:35.878Z,31.90
2019-04-22T16:13:38.044Z,32.10
2019-04-22T16:14:59.672Z,32.30
2019-04-22T16:16:12.391Z,32.30
2019-04-22T16:17:22.298Z,32.40
2019-04-22T16:20:03.633Z,33.10
2019-04-22T16:24:24.354Z,34.40
2019-04-22T16:30:05.477Z,36.30
2019-04-22T16:32:51.644Z,37.30
2019-04-22T16:32:57.219Z,36.80
2019-04-22T16:34:13.285Z,37.60
2019-04-22T16:37:14.640Z,38.50
2019-04-22T16:42:11.887Z,39.70
2019-04-22T16:43:28.756Z,40.00